createdAt,value
2018-11-29T00:03:45.291Z,96.30
2018-11-29T00:09:11.575Z,96.70
2018-11-29T00:14:17.087Z,97.00
2018-11-29T00:19:22.414Z,96.40
2018-11-29T00:24:28.422Z,96.30
2018-11-29T00:29:40.029Z,96.90
2018-11-29T00:34:46.097Z,96.70
2018-11-29T00:39:52.378Z,96.50
2018-11-29T00:44:57.701Z,96.70
2018-11-29T00:50:13.577Z,96.60
2018-11-29T00:55:28.625Z,96.70
2018-11-29T01:00:38.150Z,96.80
2018-11-29T01:05:43.591Z,96.60
2018-11-29T01:10:48.886Z,96.70
2018-11-29T01:15:57.040Z,96.80
2018-11-29T01:21:02.428Z,96.70
2018-11-29T01:26:07.731Z,96.80
2018-11-29T01:31:13.005Z,96.80
2018-11-29T01:36:20.361Z,96.40
2018-11-29T01:41:37.426Z,96.40
2018-11-29T01:46:42.765Z,96.40
2018-11-29T01:51:49.084Z,96.50
2018-11-29T01:56:54.394Z,96.30
2018-11-29T02:01:59.701Z,96.20
2018-11-29T02:07:05.399Z,96.00
2018-11-29T02:12:10.699Z,95.90
2018-11-29T02:17:18.710Z,95.80
2018-11-29T02:22:24.045Z,96.00
2018-11-29T02:27:29.349Z,96.00
2018-11-29T02:32:34.666Z,95.90
2018-11-29T02:37:41.363Z,96.30
2018-11-29T02:42:47.469Z,96.00
2018-11-29T02:48:00.125Z,95.70
2018-11-29T02:53:05.450Z,95.60
2018-11-29T02:58:19.878Z,95.10
2018-11-29T03:03:25.194Z,95.20
2018-11-29T03:08:31.495Z,95.00
2018-11-29T03:13:38.741Z,95.10
2018-11-29T03:18:48.813Z,95.30
2018-11-29T03:23:54.631Z,95.00
2018-11-29T03:28:59.982Z,95.20
2018-11-29T03:34:05.862Z,94.90
2018-11-29T03:39:11.223Z,94.60
2018-11-29T03:44:19.572Z,94.60
2018-11-29T03:49:24.901Z,94.80
2018-11-29T03:54:30.300Z,94.50
2018-11-29T03:59:35.583Z,94.50
2018-11-29T04:04:41.384Z,94.60
2018-11-29T04:09:47.839Z,94.80
2018-11-29T04:14:59.577Z,94.50
2018-11-29T04:20:12.089Z,94.30
2018-11-29T04:25:17.488Z,94.10
2018-11-29T04:30:27.377Z,94.30
2018-11-29T04:35:33.667Z,94.10
2018-11-29T04:40:44.164Z,93.80
2018-11-29T04:46:00.488Z,93.90
2018-11-29T04:51:06.789Z,94.00
2018-11-29T04:56:12.080Z,93.70
2018-11-29T05:01:17.349Z,93.60
2018-11-29T05:06:23.775Z,93.70
2018-11-29T05:11:29.073Z,93.60
2018-11-29T05:16:34.871Z,93.50
2018-11-29T05:21:44.516Z,93.70
2018-11-29T05:26:52.315Z,93.60
2018-11-29T05:31:57.670Z,93.90
2018-11-29T05:37:03.555Z,93.80
2018-11-29T05:42:08.940Z,93.70
2018-11-29T05:47:14.216Z,93.80
2018-11-29T05:52:19.518Z,93.80
2018-11-29T05:57:25.834Z,94.00
2018-11-29T06:02:31.139Z,94.00
2018-11-29T06:07:36.446Z,93.80
2018-11-29T06:12:41.810Z,93.90
2018-11-29T06:17:48.125Z,93.80
2018-11-29T06:22:54.338Z,94.20
2018-11-29T06:27:59.613Z,94.00
2018-11-29T06:33:05.293Z,94.10
2018-11-29T06:38:10.561Z,94.10
2018-11-29T06:43:15.844Z,94.10
2018-11-29T06:48:21.173Z,94.10
2018-11-29T06:53:31.674Z,94.40
2018-11-29T06:58:37.283Z,94.40
2018-11-29T07:03:43.840Z,94.40
2018-11-29T07:08:49.656Z,94.50
2018-11-29T07:13:56.490Z,94.50
2018-11-29T07:19:03.607Z,94.30
2018-11-29T07:24:11.050Z,93.80
2018-11-29T07:29:17.125Z,93.70
2018-11-29T07:34:21.954Z,93.50
2018-11-29T07:39:27.290Z,93.50
2018-11-29T07:44:32.593Z,93.30
2018-11-29T07:49:37.954Z,93.20
2018-11-29T07:54:45.050Z,93.00
2018-11-29T07:59:50.414Z,92.60
2018-11-29T08:04:55.719Z,92.50
2018-11-29T08:10:01.003Z,92.30
2018-11-29T08:15:07.921Z,92.10
2018-11-29T08:20:17.079Z,91.90
2018-11-29T08:25:25.204Z,91.60
2018-11-29T08:30:30.551Z,91.10
2018-11-29T08:35:35.975Z,91.10
2018-11-29T08:40:41.308Z,91.00
2018-11-29T08:45:46.618Z,90.60
2018-11-29T08:50:51.901Z,90.30
2018-11-29T08:55:57.181Z,90.10
2018-11-29T09:01:03.466Z,89.50
2018-11-29T09:06:08.818Z,88.60
2018-11-29T09:11:14.230Z,87.00
2018-11-29T09:16:19.592Z,86.80
2018-11-29T09:21:24.876Z,86.50
2018-11-29T09:26:30.244Z,86.70
2018-11-29T09:31:35.557Z,85.50
2018-11-29T09:36:40.914Z,83.40
2018-11-29T09:41:46.231Z,83.10
2018-11-29T09:46:51.573Z,83.10
2018-11-29T09:51:56.938Z,83.20
2018-11-29T09:57:02.229Z,82.70
2018-11-29T10:02:07.562Z,81.80
2018-11-29T10:07:12.874Z,82.50
2018-11-29T10:12:18.152Z,80.90
2018-11-29T10:17:24.518Z,80.10
2018-11-29T10:22:30.789Z,79.90
2018-11-29T10:27:36.093Z,80.90
2018-11-29T10:32:41.534Z,80.90
2018-11-29T10:37:47.497Z,79.40
2018-11-29T10:42:52.825Z,78.90
2018-11-29T10:47:58.184Z,78.00
2018-11-29T10:53:04.546Z,78.50
2018-11-29T10:58:09.914Z,78.90
2018-11-29T11:03:21.021Z,76.10
2018-11-29T11:08:27.026Z,75.30
2018-11-29T11:13:33.661Z,74.50
2018-11-29T11:18:39.003Z,73.00
2018-11-29T11:23:46.402Z,71.50
2018-11-29T11:28:53.429Z,72.00
2018-11-29T11:38:58.453Z,70.00
2018-11-29T11:44:04.785Z,63.80
2018-11-29T11:49:10.081Z,53.00
2018-11-29T11:54:15.414Z,40.60
2018-11-29T11:59:20.689Z,37.50
2018-11-29T12:04:25.978Z,35.10
2018-11-29T12:09:31.253Z,32.80
2018-11-29T12:14:36.517Z,30.30
2018-11-29T12:19:41.803Z,30.80
2018-11-29T12:24:47.060Z,31.70
2018-11-29T12:29:52.328Z,31.60
2018-11-29T12:34:57.625Z,31.80
2018-11-29T12:40:03.888Z,34.10
2018-11-29T12:45:12.052Z,35.00
2018-11-29T12:50:20.337Z,35.10
2018-11-29T12:55:26.558Z,35.20
2018-11-29T13:00:31.962Z,35.00
2018-11-29T13:05:38.692Z,36.00
2018-11-29T13:10:44.982Z,35.50
2018-11-29T13:15:51.287Z,34.40
2018-11-29T13:21:03.474Z,32.40
2018-11-29T13:26:08.888Z,31.00
2018-11-29T13:31:14.169Z,31.00
2018-11-29T13:36:19.529Z,33.10
2018-11-29T13:41:24.838Z,34.80
2018-11-29T13:46:31.129Z,35.60
2018-11-29T13:51:36.389Z,36.00
2018-11-29T13:56:41.700Z,36.40
2018-11-29T14:01:47.951Z,36.40
2018-11-29T14:06:54.115Z,38.40
2018-11-29T14:11:59.473Z,38.90
2018-11-29T14:17:05.280Z,39.80
2018-11-29T14:22:10.621Z,42.30
2018-11-29T14:27:15.903Z,45.60
2018-11-29T14:32:21.348Z,48.60
2018-11-29T14:37:32.188Z,50.60
2018-11-29T14:42:37.556Z,52.30
2018-11-29T14:47:43.909Z,54.20
2018-11-29T14:52:49.227Z,54.90
2018-11-29T14:57:54.529Z,56.50
2018-11-29T15:03:00.693Z,57.80
2018-11-29T15:08:08.577Z,58.50
2018-11-29T15:13:15.270Z,59.20
2018-11-29T15:18:21.720Z,59.90
2018-11-29T15:23:28.086Z,60.80
2018-11-29T15:28:33.903Z,62.60
2018-11-29T15:33:43.493Z,63.10
2018-11-29T15:38:48.794Z,63.40
2018-11-29T15:43:54.213Z,63.30
2018-11-29T15:49:00.510Z,64.00
2018-11-29T15:54:06.369Z,64.20
2018-11-29T15:59:11.949Z,65.00
2018-11-29T16:04:17.277Z,65.80
2018-11-29T16:09:22.598Z,65.00
2018-11-29T16:14:27.903Z,65.40
2018-11-29T16:19:33.193Z,65.60
2018-11-29T16:24:38.489Z,66.00
2018-11-29T16:30:16.757Z,65.60
2018-11-29T16:35:22.057Z,63.60
2018-11-29T16:40:27.361Z,64.10
2018-11-29T16:45:42.492Z,64.60
2018-11-29T16:50:49.891Z,63.60
2018-11-29T16:56:06.634Z,62.70
2018-11-29T17:01:12.926Z,63.00
2018-11-29T17:06:18.281Z,62.90
2018-11-29T17:11:25.641Z,63.40
2018-11-29T17:16:32.065Z,61.90
2018-11-29T17:21:59.568Z,62.50
2018-11-29T17:27:06.456Z,61.70
2018-11-29T17:32:11.792Z,61.60
2018-11-29T17:37:17.073Z,62.20
2018-11-29T17:42:23.373Z,61.60
2018-11-29T17:47:28.681Z,62.00
2018-11-29T17:52:34.067Z,61.70
2018-11-29T17:57:39.397Z,62.40
2018-11-29T18:02:45.727Z,63.60
2018-11-29T18:07:51.374Z,63.10
2018-11-29T18:13:04.903Z,62.40
2018-11-29T18:18:14.772Z,63.10
2018-11-29T18:23:20.022Z,62.90
2018-11-29T18:28:25.319Z,62.30
2018-11-29T18:33:30.699Z,63.70
2018-11-29T18:38:36.084Z,63.30
2018-11-29T18:43:49.177Z,63.10
2018-11-29T18:48:54.583Z,64.10
2018-11-29T18:54:00.567Z,63.10
2018-11-29T18:59:10.285Z,64.10
2018-11-29T19:04:15.611Z,64.20
2018-11-29T19:09:21.934Z,64.90
2018-11-29T19:14:28.345Z,64.90
2018-11-29T19:19:33.662Z,66.50
2018-11-29T19:24:39.071Z,65.40
2018-11-29T19:29:44.409Z,66.00
2018-11-29T19:34:49.742Z,66.50
2018-11-29T19:39:55.052Z,66.70
2018-11-29T19:45:00.976Z,67.80
2018-11-29T19:50:10.723Z,67.00
2018-11-29T19:55:26.349Z,70.40
2018-11-29T20:00:31.775Z,69.80
2018-11-29T20:05:37.150Z,69.80
2018-11-29T20:10:43.038Z,70.00
2018-11-29T20:15:51.374Z,69.40
2018-11-29T20:20:57.665Z,69.60
2018-11-29T20:26:03.130Z,69.70
2018-11-29T20:31:09.449Z,70.80
2018-11-29T20:36:14.789Z,70.10
2018-11-29T20:41:22.177Z,70.90
2018-11-29T20:46:27.995Z,71.60
2018-11-29T20:51:34.194Z,71.00
2018-11-29T20:56:39.494Z,71.50
2018-11-29T21:01:44.812Z,72.30
2018-11-29T21:06:50.146Z,72.50
2018-11-29T21:11:55.876Z,73.80
2018-11-29T21:17:01.185Z,72.80
2018-11-29T21:22:06.604Z,73.70
2018-11-29T21:27:14.081Z,72.80
2018-11-29T21:32:21.761Z,73.00
2018-11-29T21:37:27.069Z,72.20
2018-11-29T21:42:33.446Z,73.40
2018-11-29T21:47:38.798Z,74.40
2018-11-29T21:52:45.236Z,75.40
2018-11-29T21:57:51.434Z,74.70
2018-11-29T22:02:59.281Z,74.80
2018-11-29T22:08:05.342Z,73.20
2018-11-29T22:13:15.482Z,74.50
2018-11-29T22:18:22.728Z,73.50
2018-11-29T22:23:28.084Z,74.70
2018-11-29T22:28:33.512Z,74.50
2018-11-29T22:33:39.000Z,75.40
2018-11-29T22:38:47.268Z,74.30
2018-11-29T22:43:53.873Z,73.40
2018-11-29T22:48:59.254Z,73.50
2018-11-29T22:54:05.369Z,73.60
2018-11-29T22:59:16.327Z,73.70
2018-11-29T23:04:21.795Z,73.30
2018-11-29T23:09:27.314Z,73.50
2018-11-29T23:14:33.627Z,74.10
2018-11-29T23:19:45.423Z,75.10
2018-11-29T23:24:55.446Z,75.40
2018-11-29T23:30:05.812Z,74.50
2018-11-29T23:35:13.109Z,75.80
2018-11-29T23:40:18.758Z,76.40
2018-11-29T23:45:24.110Z,75.80
2018-11-29T23:50:29.838Z,76.10
2018-11-29T23:55:38.306Z,77.00
